메인 페이지
METAR-TAF:

METAR-TAF

공항 :

블라디보스토크 국제공항

블라디보스토크, 러시아

위도: 43-07N, 경도: 131-56E, 고도: 184m

현재 날씨관측

예보는 37분 전, 04:30시(UTC)에 발표되었습니다.
여러 방향의 바람 2kt
온도 7°C
습도 49%
기압 1022 hPa
시정 10km 이상

METAR: UHWW 150430Z VRB01MPS 9999 NSC 07/M03 Q1022 R25L/0///70 NOSIG RMK QFE765

시각: 15:07 (05:07 UTC)

예보

예보는 3 시간 7분 전, 02:00시(UTC)에 발표되었습니다.
예보 대상 시간: 15일 03시부터 16일 03시까지 (UTC)
남남서6kt
시정 10km 이상
고도 2600ft 상공 구름 많음
전환 중
15일 08시부터 15일 10시까지 (UTC)
고도 2000ft 상공 구름 많음, 적란운.
15일 1200시부터 (UTC)
북북서6kt
시정: 3100m
고도 1300ft 상공 구름 많음, 적란운.
약한소낙눈, (약한) 결빙, 비
일시적
15일 21시부터 16일 03시까지 (UTC)
북북서21kt, 순간 최대 풍속 31kt

TAF: UHWW 150200Z 1503/1603 20003MPS 9999 BKN026 BECMG 1508/1510 BKN020CB FM151200 34003MPS 3100 -SHSN -FZRA BKN013CB TEMPO 1521/1603 34011G16MPS

4,000개 이상의 공항 관측 자료 및 예보 (METAR 및 TAF 보고).

지도상에서 검색 가능한 기상관측소가 노란 점과 빨간 점으로 표시되어 있습니다.

기상관측소 명을 보려면 표시 위로 마우스를 이동하세요.

날씨 관측과 예보를 보려면 클릭하세요.

지도 변경 : 확대하려면 엑스 표시가 있는 녹색 버튼, 축소하려면 빼기 표시가 있는 녹색 버튼, 다음 페이지의 지도를 보려면 녹색 화살표를 클릭하세요.


METAR-TAF: